Time;durP1;ratioP1;P1;durP2;ratioP2;P2;SDS_P1;SDS_P2;PMS_P1;PMS_P2;Temp;Humidity;BMP_temperature;BMP_pressure;BME280_temperature;BME280_humidity;BME280_pressure;Samples;Min_cycle;Max_cycle;Signal;HPM_P1;HPM_P2
2023/06/24 00:01:25;;;;;;;6.37;5.87;;;;;;;;;;5088561;28;20233;-86
2023/06/24 00:03:53;;;;;;;6.67;6.13;;;;;;;;;;5091301;28;20227;-87
2023/06/24 00:06:19;;;;;;;6.60;6.00;;;;;;;;;;5087887;28;20180;-86
2023/06/24 00:08:49;;;;;;;6.43;5.93;;;;;;;;;;5085880;28;20172;-85
2023/06/24 00:11:16;;;;;;;6.27;5.77;;;;;;;;;;5086877;28;20215;-86
2023/06/24 00:13:42;;;;;;;6.10;5.50;;;;;;;;;;5085550;28;20191;-85
2023/06/24 00:16:09;;;;;;;6.27;5.77;;;;;;;;;;5085306;28;20293;-86
2023/06/24 00:18:35;;;;;;;7.07;5.90;;;;;;;;;;5092039;28;20217;-84
2023/06/24 00:21:02;;;;;;;7.43;6.13;;;;;;;;;;5075484;28;20166;-87
2023/06/24 00:23:30;;;;;;;7.80;5.70;;;;;;;;;;5079907;28;20213;-85
2023/06/24 00:25:56;;;;;;;6.67;6.07;;;;;;;;;;5086715;28;20718;-86
2023/06/24 00:28:22;;;;;;;6.10;5.60;;;;;;;;;;5078222;28;20250;-87
2023/06/24 00:30:48;;;;;;;6.13;5.43;;;;;;;;;;5092236;28;20199;-86
2023/06/24 00:33:15;;;;;;;8.07;6.90;;;;;;;;;;5083795;28;20179;-86
2023/06/24 00:35:42;;;;;;;7.20;6.30;;;;;;;;;;5083138;28;20184;-85
2023/06/24 00:38:08;;;;;;;6.70;6.13;;;;;;;;;;5083084;28;20219;-85
2023/06/24 00:40:35;;;;;;;5.83;5.33;;;;;;;;;;5090551;28;20271;-85
2023/06/24 00:43:01;;;;;;;5.93;5.33;;;;;;;;;;5092014;28;20172;-86
2023/06/24 00:45:27;;;;;;;6.87;6.27;;;;;;;;;;5088841;28;20715;-86
2023/06/24 00:47:56;;;;;;;6.10;5.60;;;;;;;;;;5086922;28;20177;-87
2023/06/24 00:50:22;;;;;;;6.13;5.57;;;;;;;;;;5086855;28;20231;-86
2023/06/24 00:52:49;;;;;;;7.00;6.17;;;;;;;;;;5087484;28;20197;-86
2023/06/24 00:55:15;;;;;;;5.97;5.37;;;;;;;;;;5089725;28;20223;-85
2023/06/24 00:57:43;;;;;;;6.53;5.73;;;;;;;;;;5086904;28;20252;-87
2023/06/24 01:00:13;;;;;;;6.20;5.57;;;;;;;;;;5081317;28;20647;-86
2023/06/24 01:02:42;;;;;;;6.40;5.80;;;;;;;;;;5088876;28;20273;-85
2023/06/24 01:05:08;;;;;;;6.33;5.83;;;;;;;;;;5085237;28;20594;-87
2023/06/24 01:07:35;;;;;;;6.03;5.53;;;;;;;;;;5075399;28;20168;-85
2023/06/24 01:10:02;;;;;;;6.00;5.50;;;;;;;;;;5088508;28;20202;-85
2023/06/24 01:12:28;;;;;;;6.27;5.77;;;;;;;;;;5090160;28;20172;-84
2023/06/24 01:14:54;;;;;;;6.03;5.43;;;;;;;;;;5086685;28;20197;-85
2023/06/24 01:17:30;;;;;;;7.10;5.83;;;;;;;;;;5105158;28;20485;-84
2023/06/24 01:20:04;;;;;;;5.67;5.20;;;;;;;;;;5088713;28;20187;-85
2023/06/24 01:22:48;;;;;;;5.90;5.47;;;;;;;;;;5086335;28;20212;-85
2023/06/24 01:25:33;;;;;;;5.23;4.83;;;;;;;;;;5089304;28;20203;-86
2023/06/24 01:28:26;;;;;;;5.93;5.43;;;;;;;;;;5073447;28;20173;-85
2023/06/24 01:31:01;;;;;;;5.50;5.00;;;;;;;;;;5044943;28;20557;-86
2023/06/24 01:33:33;;;;;;;5.53;5.13;;;;;;;;;;5091231;28;20255;-84
2023/06/24 01:36:01;;;;;;;5.37;4.97;;;;;;;;;;5087621;28;20545;-84
2023/06/24 01:38:32;;;;;;;6.20;5.70;;;;;;;;;;5089067;28;20191;-85
2023/06/24 01:40:58;;;;;;;6.43;5.83;;;;;;;;;;5086543;28;20168;-86
2023/06/24 01:43:25;;;;;;;5.63;5.23;;;;;;;;;;5089038;28;20161;-84
2023/06/24 01:45:53;;;;;;;6.13;5.53;;;;;;;;;;5085308;28;20172;-84
2023/06/24 01:48:22;;;;;;;7.13;5.40;;;;;;;;;;5086278;28;20528;-85
2023/06/24 01:51:21;;;;;;;6.50;5.23;;;;;;;;;;5075650;28;20713;-85
2023/06/24 01:53:52;;;;;;;6.67;5.97;;;;;;;;;;5045877;28;20274;-85
2023/06/24 01:56:19;;;;;;;5.53;5.03;;;;;;;;;;5083951;28;20185;-85
2023/06/24 01:58:46;;;;;;;6.03;5.43;;;;;;;;;;5073320;28;20192;-86
2023/06/24 02:01:13;;;;;;;6.33;5.30;;;;;;;;;;5086589;28;20180;-84
2023/06/24 02:03:40;;;;;;;5.33;4.93;;;;;;;;;;5074768;28;20224;-85
2023/06/24 02:06:09;;;;;;;6.37;5.73;;;;;;;;;;5084595;28;20181;-84
2023/06/24 02:08:36;;;;;;;6.13;5.63;;;;;;;;;;5088719;28;20337;-85
2023/06/24 02:11:02;;;;;;;6.83;6.17;;;;;;;;;;5085769;28;20193;-85
2023/06/24 02:13:32;;;;;;;7.17;5.80;;;;;;;;;;5084583;28;20176;-85
2023/06/24 02:15:58;;;;;;;6.27;5.63;;;;;;;;;;5078221;28;20611;-83
2023/06/24 02:18:25;;;;;;;15.13;6.90;;;;;;;;;;5090341;28;20175;-85
2023/06/24 02:20:51;;;;;;;6.83;6.00;;;;;;;;;;5105010;28;20195;-85
2023/06/24 02:23:17;;;;;;;6.50;5.90;;;;;;;;;;5083151;28;20188;-86
2023/06/24 02:25:44;;;;;;;5.83;5.23;;;;;;;;;;5088887;28;20243;-85
2023/06/24 02:28:10;;;;;;;6.43;5.80;;;;;;;;;;5085675;28;20589;-85
2023/06/24 02:30:37;;;;;;;6.57;6.03;;;;;;;;;;5088649;28;20531;-85
2023/06/24 02:33:03;;;;;;;5.50;5.00;;;;;;;;;;5084796;28;20180;-86
2023/06/24 02:35:29;;;;;;;6.70;6.13;;;;;;;;;;5085743;28;20225;-85
2023/06/24 02:37:55;;;;;;;5.67;5.07;;;;;;;;;;5079635;28;20195;-86
2023/06/24 02:40:21;;;;;;;6.10;5.50;;;;;;;;;;5091001;28;20185;-87
2023/06/24 02:42:47;;;;;;;6.20;5.70;;;;;;;;;;5091961;28;20184;-86
2023/06/24 02:45:13;;;;;;;5.73;5.23;;;;;;;;;;5086678;28;20545;-86
2023/06/24 02:47:39;;;;;;;7.30;5.50;;;;;;;;;;5094354;28;20519;-86
2023/06/24 02:50:06;;;;;;;6.70;6.03;;;;;;;;;;5092449;28;20712;-86
2023/06/24 02:52:32;;;;;;;6.23;5.67;;;;;;;;;;5085080;28;20492;-86
2023/06/24 02:54:58;;;;;;;5.40;4.90;;;;;;;;;;5085991;28;20587;-85
2023/06/24 02:57:26;;;;;;;6.03;5.53;;;;;;;;;;5087480;28;20666;-86
2023/06/24 02:59:52;;;;;;;5.63;5.13;;;;;;;;;;5085168;28;20343;-86
2023/06/24 03:02:18;;;;;;;5.80;5.30;;;;;;;;;;5098243;28;20582;-87
2023/06/24 03:04:45;;;;;;;5.93;5.43;;;;;;;;;;5092627;28;20227;-86
2023/06/24 03:07:11;;;;;;;5.43;5.03;;;;;;;;;;5098252;28;20179;-87
2023/06/24 03:09:37;;;;;;;6.07;5.47;;;;;;;;;;5088020;28;20649;-86
2023/06/24 03:12:04;;;;;;;6.00;5.43;;;;;;;;;;5087530;28;20186;-85
2023/06/24 03:14:30;;;;;;;5.27;4.87;;;;;;;;;;5082070;28;20188;-85
2023/06/24 03:16:57;;;;;;;8.40;7.80;;;;;;;;;;5090137;28;20187;-86
2023/06/24 03:19:23;;;;;;;6.43;5.80;;;;;;;;;;5092109;28;20640;-86
2023/06/24 03:21:49;;;;;;;5.70;5.20;;;;;;;;;;5087570;28;20655;-86
2023/06/24 03:24:15;;;;;;;6.37;5.87;;;;;;;;;;5083444;28;20201;-86
2023/06/24 03:26:41;;;;;;;5.80;5.30;;;;;;;;;;5093888;28;20178;-86
2023/06/24 03:29:07;;;;;;;5.90;5.30;;;;;;;;;;5095039;28;20674;-85
2023/06/24 03:31:34;;;;;;;7.67;7.07;;;;;;;;;;5092610;28;20264;-85
2023/06/24 03:34:00;;;;;;;5.90;5.40;;;;;;;;;;5092262;28;20257;-85
2023/06/24 03:36:26;;;;;;;6.63;6.03;;;;;;;;;;5079468;28;20603;-85
2023/06/24 03:38:52;;;;;;;6.40;5.90;;;;;;;;;;5090546;28;20176;-86
2023/06/24 03:41:18;;;;;;;7.03;6.43;;;;;;;;;;5087212;28;20188;-85
2023/06/24 03:43:45;;;;;;;7.00;6.27;;;;;;;;;;5092882;28;20207;-86
2023/06/24 03:46:11;;;;;;;6.47;5.97;;;;;;;;;;5094162;28;20202;-86
2023/06/24 03:48:37;;;;;;;7.43;6.23;;;;;;;;;;5094080;28;20267;-86
2023/06/24 03:51:03;;;;;;;9.33;6.80;;;;;;;;;;5092633;28;20190;-85
2023/06/24 03:53:29;;;;;;;8.10;6.00;;;;;;;;;;5080256;28;20298;-86
2023/06/24 03:55:55;;;;;;;7.13;6.50;;;;;;;;;;5087140;28;20193;-85
2023/06/24 03:58:21;;;;;;;6.37;5.87;;;;;;;;;;5093432;28;20263;-85
2023/06/24 04:00:49;;;;;;;8.77;6.00;;;;;;;;;;5103057;28;20173;-84
2023/06/24 04:03:18;;;;;;;6.93;6.23;;;;;;;;;;5087746;28;20285;-86
2023/06/24 04:05:45;;;;;;;6.30;5.70;;;;;;;;;;5085828;28;20296;-85
2023/06/24 04:08:11;;;;;;;7.47;5.93;;;;;;;;;;5082523;28;20242;-85
2023/06/24 04:10:37;;;;;;;6.57;5.87;;;;;;;;;;5090930;28;20233;-85
2023/06/24 04:13:03;;;;;;;6.83;6.13;;;;;;;;;;5089554;28;20236;-85
2023/06/24 04:15:29;;;;;;;6.63;5.97;;;;;;;;;;5082797;28;20188;-85
2023/06/24 04:17:55;;;;;;;7.90;6.00;;;;;;;;;;5090319;28;20547;-85
2023/06/24 04:20:21;;;;;;;7.00;6.40;;;;;;;;;;5091798;28;20244;-85
2023/06/24 04:22:47;;;;;;;7.50;6.70;;;;;;;;;;5086670;28;20183;-85
2023/06/24 04:25:13;;;;;;;7.67;6.97;;;;;;;;;;5084167;28;20542;-85
2023/06/24 04:27:39;;;;;;;6.97;6.03;;;;;;;;;;5093588;28;20291;-85
2023/06/24 04:30:06;;;;;;;6.67;5.90;;;;;;;;;;5101217;28;20187;-84
2023/06/24 04:32:32;;;;;;;6.80;5.90;;;;;;;;;;5078698;28;20184;-85
2023/06/24 04:35:01;;;;;;;7.93;6.50;;;;;;;;;;5079659;28;20238;-85
2023/06/24 04:37:27;;;;;;;8.32;6.97;;;;;;;;;;5084659;28;20514;-85
2023/06/24 04:39:53;;;;;;;7.03;6.37;;;;;;;;;;5078367;28;20313;-84
2023/06/24 04:42:19;;;;;;;6.73;6.00;;;;;;;;;;5087214;28;20729;-85
2023/06/24 04:44:45;;;;;;;7.23;6.63;;;;;;;;;;5079441;28;20405;-85
2023/06/24 04:47:13;;;;;;;7.23;6.53;;;;;;;;;;5081534;28;20176;-84
2023/06/24 04:49:39;;;;;;;8.77;7.17;;;;;;;;;;5085780;28;20179;-84
2023/06/24 04:52:06;;;;;;;8.50;7.60;;;;;;;;;;5087149;28;20262;-84
2023/06/24 04:54:32;;;;;;;9.00;7.10;;;;;;;;;;5085667;28;20227;-85
2023/06/24 04:56:58;;;;;;;7.87;6.83;;;;;;;;;;5086789;28;20573;-84
2023/06/24 04:59:24;;;;;;;9.13;8.03;;;;;;;;;;5086691;28;20239;-84
2023/06/24 05:01:50;;;;;;;8.37;7.57;;;;;;;;;;5083957;28;20187;-84
2023/06/24 05:04:16;;;;;;;7.60;6.80;;;;;;;;;;5082670;28;20284;-84
2023/06/24 05:06:42;;;;;;;8.43;7.63;;;;;;;;;;5089019;28;20631;-84
2023/06/24 05:09:13;;;;;;;8.07;7.27;;;;;;;;;;5089769;28;20183;-84
2023/06/24 05:11:39;;;;;;;8.67;7.87;;;;;;;;;;5106273;28;20227;-85
2023/06/24 05:14:05;;;;;;;8.73;7.10;;;;;;;;;;5085545;28;20242;-84
2023/06/24 05:16:31;;;;;;;7.97;7.27;;;;;;;;;;5089622;28;20206;-84
2023/06/24 05:18:57;;;;;;;8.07;7.37;;;;;;;;;;5086194;28;20212;-85
2023/06/24 05:21:23;;;;;;;9.13;7.93;;;;;;;;;;5085629;28;20181;-85
2023/06/24 05:23:49;;;;;;;8.90;7.40;;;;;;;;;;5077568;28;20205;-85
2023/06/24 05:26:15;;;;;;;8.47;7.57;;;;;;;;;;5084057;28;20176;-84
2023/06/24 05:28:41;;;;;;;7.40;6.77;;;;;;;;;;5093334;28;20180;-85
2023/06/24 05:31:07;;;;;;;7.87;7.17;;;;;;;;;;5089563;28;20530;-85
2023/06/24 05:33:33;;;;;;;7.70;7.00;;;;;;;;;;5081193;28;20173;-84
2023/06/24 05:35:59;;;;;;;8.37;7.37;;;;;;;;;;5080821;28;20169;-84
2023/06/24 05:38:25;;;;;;;8.33;7.53;;;;;;;;;;5089186;28;20269;-85
2023/06/24 05:40:51;;;;;;;9.63;7.77;;;;;;;;;;5078158;28;20238;-84
2023/06/24 05:43:17;;;;;;;8.40;7.70;;;;;;;;;;5085450;28;20183;-85
2023/06/24 05:45:43;;;;;;;7.77;7.03;;;;;;;;;;5078687;28;20222;-85
2023/06/24 05:48:09;;;;;;;8.17;7.40;;;;;;;;;;5079041;28;20176;-85
2023/06/24 05:50:35;;;;;;;7.83;7.13;;;;;;;;;;5083443;28;20176;-84
2023/06/24 05:53:01;;;;;;;8.17;6.83;;;;;;;;;;5084430;28;20188;-85
2023/06/24 05:55:27;;;;;;;7.50;6.80;;;;;;;;;;5090395;28;20199;-85
2023/06/24 05:57:53;;;;;;;7.23;6.57;;;;;;;;;;5093956;28;20184;-84
2023/06/24 06:00:19;;;;;;;8.57;7.30;;;;;;;;;;5079132;28;20180;-84
2023/06/24 06:02:45;;;;;;;8.03;7.33;;;;;;;;;;5089746;28;20184;-85
2023/06/24 06:05:11;;;;;;;8.13;7.33;;;;;;;;;;5086130;28;20653;-85
2023/06/24 06:07:39;;;;;;;8.00;7.20;;;;;;;;;;5082892;28;20213;-85
2023/06/24 06:10:06;;;;;;;7.60;6.90;;;;;;;;;;5091039;28;20169;-86
2023/06/24 06:12:32;;;;;;;12.50;8.33;;;;;;;;;;5090481;28;20188;-85
2023/06/24 06:14:58;;;;;;;7.83;7.10;;;;;;;;;;5083533;28;20229;-85
2023/06/24 06:17:24;;;;;;;8.77;7.83;;;;;;;;;;5085344;28;20248;-84
2023/06/24 06:19:50;;;;;;;10.33;7.83;;;;;;;;;;5084328;28;20178;-84
2023/06/24 06:22:17;;;;;;;9.60;8.63;;;;;;;;;;5086844;28;20640;-85
2023/06/24 06:24:43;;;;;;;8.27;7.27;;;;;;;;;;5082984;28;20620;-84
2023/06/24 06:27:11;;;;;;;9.03;7.63;;;;;;;;;;5084825;28;20177;-84
2023/06/24 06:29:37;;;;;;;8.97;8.07;;;;;;;;;;5078346;28;20265;-84
2023/06/24 06:32:03;;;;;;;9.63;8.60;;;;;;;;;;5086742;28;20258;-85
2023/06/24 06:34:29;;;;;;;10.50;9.43;;;;;;;;;;5078178;28;20189;-84
2023/06/24 06:36:55;;;;;;;11.40;10.40;;;;;;;;;;5084032;28;20644;-85
2023/06/24 06:39:21;;;;;;;10.47;8.90;;;;;;;;;;5083435;28;20184;-85
2023/06/24 06:41:47;;;;;;;12.10;9.90;;;;;;;;;;5088838;28;20183;-85
2023/06/24 06:44:13;;;;;;;11.07;9.97;;;;;;;;;;5082444;28;20204;-85
2023/06/24 06:46:39;;;;;;;10.63;9.63;;;;;;;;;;5090696;28;20655;-86
2023/06/24 06:49:05;;;;;;;12.20;10.10;;;;;;;;;;5084128;28;20168;-85
2023/06/24 06:51:31;;;;;;;11.20;10.07;;;;;;;;;;5085831;28;20189;-86
2023/06/24 06:53:57;;;;;;;13.43;10.37;;;;;;;;;;5086593;28;20205;-84
2023/06/24 06:56:27;;;;;;;10.20;8.77;;;;;;;;;;5084764;28;20253;-85
2023/06/24 06:58:53;;;;;;;9.10;8.17;;;;;;;;;;5088819;28;20178;-85
2023/06/24 07:01:20;;;;;;;13.67;9.63;;;;;;;;;;5087364;28;20198;-88
2023/06/24 07:03:46;;;;;;;11.20;8.77;;;;;;;;;;5079701;28;20586;-84
2023/06/24 07:06:12;;;;;;;10.53;9.43;;;;;;;;;;5085570;28;20544;-83
2023/06/24 07:08:38;;;;;;;12.33;10.60;;;;;;;;;;5085661;28;20168;-83
2023/06/24 07:11:04;;;;;;;12.10;9.27;;;;;;;;;;5085393;28;20188;-84
2023/06/24 07:13:30;;;;;;;12.13;9.50;;;;;;;;;;5088624;28;20178;-84
2023/06/24 07:15:56;;;;;;;12.57;10.93;;;;;;;;;;5085174;28;20180;-83
2023/06/24 07:18:22;;;;;;;13.50;11.00;;;;;;;;;;5083650;28;20566;-83
2023/06/24 07:20:48;;;;;;;10.13;9.13;;;;;;;;;;5081838;28;20267;-84
2023/06/24 07:23:14;;;;;;;11.57;9.47;;;;;;;;;;5089624;28;20196;-86
2023/06/24 07:25:40;;;;;;;13.10;11.80;;;;;;;;;;5087871;28;20295;-84
2023/06/24 07:28:06;;;;;;;15.40;11.80;;;;;;;;;;5093523;28;20168;-84
2023/06/24 07:30:32;;;;;;;14.73;11.97;;;;;;;;;;5091181;28;20205;-89
2023/06/24 07:32:59;;;;;;;13.00;11.03;;;;;;;;;;5098654;28;20176;-88
2023/06/24 07:35:25;;;;;;;15.98;12.77;;;;;;;;;;5090774;28;21024;-86
2023/06/24 07:37:51;;;;;;;12.30;11.00;;;;;;;;;;5087462;28;20192;-91
2023/06/24 07:40:17;;;;;;;11.83;9.77;;;;;;;;;;5095362;28;20187;-88
2023/06/24 07:42:43;;;;;;;11.47;10.03;;;;;;;;;;5088184;28;20186;-87
2023/06/24 07:45:09;;;;;;;9.60;8.70;;;;;;;;;;5087670;28;20569;-87
2023/06/24 07:47:35;;;;;;;12.03;8.87;;;;;;;;;;5087678;28;20345;-88
2023/06/24 07:50:01;;;;;;;12.10;10.23;;;;;;;;;;5087372;28;20184;-87
2023/06/24 07:52:27;;;;;;;11.33;10.20;;;;;;;;;;5084617;28;20187;-86
2023/06/24 07:54:53;;;;;;;12.70;11.20;;;;;;;;;;5084069;28;20682;-87
2023/06/24 07:57:19;;;;;;;14.83;13.27;;;;;;;;;;5088200;28;20188;-83
2023/06/24 07:59:45;;;;;;;18.07;12.80;;;;;;;;;;5090407;28;20184;-86
2023/06/24 08:02:11;;;;;;;15.67;13.47;;;;;;;;;;5085627;28;20180;-81
2023/06/24 08:04:37;;;;;;;15.30;13.20;;;;;;;;;;5084678;28;20237;-87
2023/06/24 08:07:04;;;;;;;15.27;12.70;;;;;;;;;;5097272;28;20190;-88
2023/06/24 08:09:30;;;;;;;15.83;11.83;;;;;;;;;;5086462;28;20611;-88
2023/06/24 08:11:56;;;;;;;12.87;11.67;;;;;;;;;;5097714;28;20623;-88
2023/06/24 08:14:22;;;;;;;13.90;12.35;;;;;;;;;;5089807;28;20507;-89
2023/06/24 08:16:48;;;;;;;12.20;10.20;;;;;;;;;;5084948;28;20190;-88
2023/06/24 08:19:14;;;;;;;11.47;10.27;;;;;;;;;;5087377;28;20644;-88
2023/06/24 08:21:40;;;;;;;11.57;10.20;;;;;;;;;;5085628;28;20698;-88
2023/06/24 08:24:07;;;;;;;11.07;9.97;;;;;;;;;;5083624;28;20249;-88
2023/06/24 08:26:53;;;;;;;9.90;8.90;;;;;;;;;;5087961;28;20184;-85
2023/06/24 08:32:22;;;;;;;10.73;8.33;;;;;;;;;;5082404;28;20229;-87
2023/06/24 08:34:48;;;;;;;9.30;8.20;;;;;;;;;;5088416;28;20184;-87
2023/06/24 08:37:14;;;;;;;14.67;10.77;;;;;;;;;;5094819;28;20175;-88
2023/06/24 08:39:40;;;;;;;10.43;9.13;;;;;;;;;;5086176;28;20179;-86
2023/06/24 08:42:06;;;;;;;9.80;8.23;;;;;;;;;;5093274;28;20187;-87
2023/06/24 08:44:32;;;;;;;10.07;8.00;;;;;;;;;;5087656;28;20207;-87
2023/06/24 08:46:58;;;;;;;9.93;7.97;;;;;;;;;;5095301;28;20631;-86
2023/06/24 08:49:24;;;;;;;10.67;8.23;;;;;;;;;;5098246;28;20229;-87
2023/06/24 08:51:54;;;;;;;13.27;8.07;;;;;;;;;;5097329;28;20183;-90
2023/06/24 08:54:20;;;;;;;10.10;6.93;;;;;;;;;;5109740;28;20247;-85
2023/06/24 08:56:47;;;;;;;10.00;8.47;;;;;;;;;;5089503;28;20215;-85
2023/06/24 08:59:13;;;;;;;8.43;6.70;;;;;;;;;;5084059;28;20184;-87
2023/06/24 09:01:39;;;;;;;8.47;6.10;;;;;;;;;;5092562;28;20652;-91
2023/06/24 09:04:05;;;;;;;7.43;5.77;;;;;;;;;;5084861;28;20323;-89
2023/06/24 09:06:34;;;;;;;6.33;5.73;;;;;;;;;;5082194;28;20173;-78
2023/06/24 09:09:00;;;;;;;6.43;5.10;;;;;;;;;;5084918;28;20275;-81
2023/06/24 09:11:27;;;;;;;5.73;5.23;;;;;;;;;;5090428;28;20208;-87
2023/06/24 09:13:59;;;;;;;8.03;6.20;;;;;;;;;;5092660;28;20180;-87
2023/06/24 09:16:26;;;;;;;8.53;6.80;;;;;;;;;;5087809;28;20184;-87
2023/06/24 09:18:53;;;;;;;7.47;6.67;;;;;;;;;;5083283;28;20176;-86
2023/06/24 09:21:23;;;;;;;8.07;5.60;;;;;;;;;;5087354;28;20176;-84
2023/06/24 09:23:51;;;;;;;7.43;6.67;;;;;;;;;;5080334;28;20185;-86
2023/06/24 09:26:17;;;;;;;8.03;6.47;;;;;;;;;;5087313;28;20237;-88
2023/06/24 09:28:48;;;;;;;7.23;6.07;;;;;;;;;;5081028;28;20539;-86
2023/06/24 09:31:14;;;;;;;7.50;6.07;;;;;;;;;;5082068;28;20181;-87
2023/06/24 09:33:40;;;;;;;7.90;6.73;;;;;;;;;;5082588;28;20256;-89
2023/06/24 09:36:06;;;;;;;6.47;5.70;;;;;;;;;;5089536;28;20171;-86
2023/06/24 09:38:33;;;;;;;11.07;7.77;;;;;;;;;;5090255;28;20178;-86
2023/06/24 09:41:04;;;;;;;8.23;6.87;;;;;;;;;;5089843;28;20201;-86
2023/06/24 09:43:30;;;;;;;7.33;6.50;;;;;;;;;;5088411;28;20177;-86
2023/06/24 09:45:58;;;;;;;9.17;6.57;;;;;;;;;;5091680;28;20210;-86
2023/06/24 09:48:24;;;;;;;7.90;6.43;;;;;;;;;;5085338;28;21235;-86
2023/06/24 09:50:51;;;;;;;7.20;6.50;;;;;;;;;;5090852;28;20651;-86
2023/06/24 09:53:18;;;;;;;6.27;5.67;;;;;;;;;;5086257;28;20214;-86
2023/06/24 09:55:46;;;;;;;5.97;5.37;;;;;;;;;;5088348;28;20177;-86
2023/06/24 09:58:13;;;;;;;7.37;6.10;;;;;;;;;;5090636;28;20531;-86
2023/06/24 10:00:40;;;;;;;6.93;5.80;;;;;;;;;;5088396;28;20189;-85
2023/06/24 10:03:06;;;;;;;8.77;6.10;;;;;;;;;;5084810;28;20598;-86
2023/06/24 10:05:32;;;;;;;8.43;6.93;;;;;;;;;;5088310;28;20296;-86
2023/06/24 10:07:58;;;;;;;7.60;6.43;;;;;;;;;;5090535;28;20175;-87
2023/06/24 10:10:24;;;;;;;6.97;6.20;;;;;;;;;;5089517;28;20169;-88
2023/06/24 10:12:50;;;;;;;7.30;5.83;;;;;;;;;;5089035;28;20193;-88
2023/06/24 10:15:16;;;;;;;5.90;5.30;;;;;;;;;;5092181;28;20726;-87
2023/06/24 10:17:42;;;;;;;6.07;5.40;;;;;;;;;;5093666;28;20282;-87
2023/06/24 10:20:08;;;;;;;8.33;4.90;;;;;;;;;;5085565;28;20268;-87
2023/06/24 10:22:36;;;;;;;4.90;4.50;;;;;;;;;;5085955;28;20601;-87
2023/06/24 10:25:02;;;;;;;4.57;4.17;;;;;;;;;;5083173;28;20207;-85
2023/06/24 10:27:32;;;;;;;4.30;3.90;;;;;;;;;;5084207;28;20545;-87
2023/06/24 10:30:02;;;;;;;5.27;4.23;;;;;;;;;;5088456;28;20190;-87
2023/06/24 10:32:39;;;;;;;4.30;3.97;;;;;;;;;;5084107;28;20194;-87
2023/06/24 10:35:05;;;;;;;4.17;3.80;;;;;;;;;;5083855;28;20190;-87
2023/06/24 10:37:32;;;;;;;5.00;4.50;;;;;;;;;;5088566;28;20256;-86
2023/06/24 10:40:02;;;;;;;4.23;3.90;;;;;;;;;;5087861;28;20160;-86
2023/06/24 10:42:28;;;;;;;4.60;4.13;;;;;;;;;;5086732;28;20288;-86
2023/06/24 10:44:55;;;;;;;6.40;4.50;;;;;;;;;;5086475;28;20451;-86
2023/06/24 10:47:22;;;;;;;5.45;4.63;;;;;;;;;;5091626;28;20186;-86
2023/06/24 10:49:48;;;;;;;4.77;4.47;;;;;;;;;;5092396;28;20536;-86
2023/06/24 10:52:15;;;;;;;5.37;4.87;;;;;;;;;;5090734;28;20192;-86
2023/06/24 10:54:41;;;;;;;5.47;4.83;;;;;;;;;;5085605;28;20200;-85
2023/06/24 10:57:08;;;;;;;7.23;5.30;;;;;;;;;;5085847;28;20180;-86
2023/06/24 10:59:35;;;;;;;5.30;4.70;;;;;;;;;;5083886;28;20246;-86
2023/06/24 11:02:01;;;;;;;5.63;5.07;;;;;;;;;;5089334;28;20291;-86
2023/06/24 11:04:27;;;;;;;7.90;5.60;;;;;;;;;;5081888;28;20240;-87
2023/06/24 11:07:02;;;;;;;6.97;5.30;;;;;;;;;;5086386;28;20175;-87
2023/06/24 11:09:29;;;;;;;5.67;5.07;;;;;;;;;;5092985;28;20231;-86
2023/06/24 11:11:55;;;;;;;7.43;5.37;;;;;;;;;;5089972;28;20517;-86
2023/06/24 11:14:21;;;;;;;6.67;5.97;;;;;;;;;;5094060;28;20190;-85
2023/06/24 11:16:47;;;;;;;5.10;4.70;;;;;;;;;;5090921;28;20690;-88
2023/06/24 11:19:13;;;;;;;5.03;4.40;;;;;;;;;;5095559;28;20181;-85
2023/06/24 11:21:39;;;;;;;4.50;4.13;;;;;;;;;;5092070;28;20619;-86
2023/06/24 11:24:05;;;;;;;4.97;4.40;;;;;;;;;;5086161;28;20207;-87
2023/06/24 11:26:31;;;;;;;5.87;5.27;;;;;;;;;;5095797;28;20644;-86
2023/06/24 11:28:57;;;;;;;5.70;5.20;;;;;;;;;;5082901;28;20201;-87
2023/06/24 11:31:27;;;;;;;5.80;5.15;;;;;;;;;;5094844;28;20186;-89
2023/06/24 11:33:53;;;;;;;5.50;5.00;;;;;;;;;;5082694;28;20333;-88
2023/06/24 11:36:23;;;;;;;5.00;4.50;;;;;;;;;;5088734;28;25154;-88
2023/06/24 11:38:49;;;;;;;5.60;4.60;;;;;;;;;;5094050;28;20173;-88
2023/06/24 11:41:15;;;;;;;4.80;4.30;;;;;;;;;;5085467;28;20179;-87
2023/06/24 11:43:47;;;;;;;4.97;4.50;;;;;;;;;;5094255;28;20187;-87
2023/06/24 11:46:26;;;;;;;4.30;3.90;;;;;;;;;;5089474;28;20315;-87
2023/06/24 11:48:53;;;;;;;5.33;4.00;;;;;;;;;;5095489;28;20871;-88
2023/06/24 11:51:19;;;;;;;4.57;4.17;;;;;;;;;;5086641;28;20600;-87
2023/06/24 11:53:46;;;;;;;4.73;4.13;;;;;;;;;;5093497;28;20199;-88
2023/06/24 11:56:12;;;;;;;5.20;4.73;;;;;;;;;;5095657;28;20273;-88
2023/06/24 11:58:39;;;;;;;4.90;4.40;;;;;;;;;;5090786;28;20581;-88
2023/06/24 12:01:08;;;;;;;5.80;5.20;;;;;;;;;;5096987;28;20539;-89
2023/06/24 12:03:34;;;;;;;5.23;4.73;;;;;;;;;;5086124;28;20588;-88
2023/06/24 12:06:01;;;;;;;5.63;4.87;;;;;;;;;;5090151;28;20207;-88
2023/06/24 12:08:27;;;;;;;6.03;4.70;;;;;;;;;;5095282;28;20200;-88
2023/06/24 12:10:53;;;;;;;6.10;4.50;;;;;;;;;;5093283;28;20239;-87
2023/06/24 12:13:19;;;;;;;5.37;4.67;;;;;;;;;;5085865;28;20188;-87
2023/06/24 12:15:45;;;;;;;5.00;4.60;;;;;;;;;;5089461;28;20199;-87
2023/06/24 12:18:14;;;;;;;4.93;4.50;;;;;;;;;;5087635;28;20188;-90
2023/06/24 12:20:40;;;;;;;4.97;3.77;;;;;;;;;;5088729;28;20173;-89
2023/06/24 12:23:06;;;;;;;4.30;3.93;;;;;;;;;;5091378;28;20534;-89
2023/06/24 12:25:33;;;;;;;6.00;4.80;;;;;;;;;;5085467;28;20185;-88
2023/06/24 12:28:02;;;;;;;4.40;4.00;;;;;;;;;;5089063;28;20172;-89
2023/06/24 12:30:28;;;;;;;5.05;4.60;;;;;;;;;;5086134;28;20202;-89
2023/06/24 12:32:54;;;;;;;4.25;3.90;;;;;;;;;;5091283;28;20257;-88
2023/06/24 12:35:20;;;;;;;4.47;4.07;;;;;;;;;;5093219;28;20323;-88
2023/06/24 12:37:47;;;;;;;4.93;4.47;;;;;;;;;;5090113;28;20184;-87
2023/06/24 12:40:13;;;;;;;4.43;3.67;;;;;;;;;;5085707;28;20179;-87
2023/06/24 12:42:39;;;;;;;4.68;4.28;;;;;;;;;;5091391;28;20224;-87
2023/06/24 12:45:06;;;;;;;5.03;4.63;;;;;;;;;;5087697;28;20302;-88
2023/06/24 12:47:32;;;;;;;3.72;3.50;;;;;;;;;;5086757;28;20590;-88
2023/06/24 12:49:58;;;;;;;4.50;4.10;;;;;;;;;;5091467;28;20188;-88
2023/06/24 12:52:24;;;;;;;4.45;4.13;;;;;;;;;;5092157;28;20258;-87
2023/06/24 12:54:50;;;;;;;5.15;4.75;;;;;;;;;;5086692;28;20199;-86
2023/06/24 12:57:16;;;;;;;4.72;4.32;;;;;;;;;;5086126;28;20187;-86
2023/06/24 12:59:42;;;;;;;4.43;4.03;;;;;;;;;;5090624;28;20176;-87
2023/06/24 13:02:08;;;;;;;4.75;4.00;;;;;;;;;;5087990;28;20631;-87
2023/06/24 13:04:35;;;;;;;3.55;3.25;;;;;;;;;;5087432;28;20226;-87
2023/06/24 13:07:01;;;;;;;5.45;3.70;;;;;;;;;;5080914;28;20177;-87
2023/06/24 13:09:27;;;;;;;4.00;3.70;;;;;;;;;;5087840;28;20558;-85
2023/06/24 13:11:53;;;;;;;3.92;3.63;;;;;;;;;;5083798;28;20619;-88
2023/06/24 13:14:19;;;;;;;4.35;3.30;;;;;;;;;;5093859;28;20184;-88
2023/06/24 13:16:45;;;;;;;4.07;3.78;;;;;;;;;;5090102;28;20204;-86
2023/06/24 13:19:11;;;;;;;3.58;3.15;;;;;;;;;;5090309;28;20587;-85
2023/06/24 13:21:37;;;;;;;4.05;3.75;;;;;;;;;;5086051;28;20183;-85
2023/06/24 13:24:03;;;;;;;4.28;3.92;;;;;;;;;;5086987;28;20254;-85
2023/06/24 13:26:29;;;;;;;3.78;3.47;;;;;;;;;;5106756;28;20188;-85
2023/06/24 13:28:55;;;;;;;8.55;3.55;;;;;;;;;;5091260;28;20535;-84
2023/06/24 13:31:21;;;;;;;4.10;3.80;;;;;;;;;;5094329;28;20234;-86
2023/06/24 13:33:47;;;;;;;3.97;3.67;;;;;;;;;;5085998;28;20206;-86
2023/06/24 13:36:28;;;;;;;3.50;3.28;;;;;;;;;;5086849;28;20176;-84
2023/06/24 13:38:54;;;;;;;4.00;3.70;;;;;;;;;;5108093;28;20281;-86
2023/06/24 13:41:20;;;;;;;7.93;4.18;;;;;;;;;;5105403;28;20197;-87
2023/06/24 13:43:46;;;;;;;4.97;4.28;;;;;;;;;;5105924;28;20586;-83
2023/06/24 13:46:12;;;;;;;4.75;3.80;;;;;;;;;;5086558;28;20204;-86
2023/06/24 13:48:38;;;;;;;4.50;3.90;;;;;;;;;;5090998;28;20194;-86
2023/06/24 13:51:05;;;;;;;4.53;3.67;;;;;;;;;;5086347;28;20293;-85
2023/06/24 13:53:31;;;;;;;3.75;3.45;;;;;;;;;;5086888;28;20646;-86
2023/06/24 13:55:57;;;;;;;4.00;3.70;;;;;;;;;;5084406;28;20188;-85
2023/06/24 13:58:24;;;;;;;3.97;3.67;;;;;;;;;;5081007;28;20505;-87
2023/06/24 14:00:50;;;;;;;4.03;3.65;;;;;;;;;;5094671;28;20176;-87
2023/06/24 14:03:16;;;;;;;4.80;4.45;;;;;;;;;;5088240;28;20269;-85
2023/06/24 14:05:42;;;;;;;3.85;3.55;;;;;;;;;;5087999;28;20245;-87
2023/06/24 14:08:08;;;;;;;3.80;3.50;;;;;;;;;;5078884;28;20168;-87
2023/06/24 14:10:34;;;;;;;3.55;3.30;;;;;;;;;;5093220;28;20957;-87
2023/06/24 14:13:00;;;;;;;5.32;3.55;;;;;;;;;;5092614;28;20171;-84
2023/06/24 14:15:26;;;;;;;3.85;3.55;;;;;;;;;;5092649;28;20175;-85
2023/06/24 14:17:52;;;;;;;3.70;3.40;;;;;;;;;;5089643;28;20236;-86
2023/06/24 14:20:18;;;;;;;4.40;4.00;;;;;;;;;;5090919;28;20565;-84
2023/06/24 14:22:44;;;;;;;4.07;3.60;;;;;;;;;;5082155;28;20179;-86
2023/06/24 14:25:10;;;;;;;3.85;3.55;;;;;;;;;;5087195;28;20423;-87
2023/06/24 14:27:37;;;;;;;3.85;3.55;;;;;;;;;;5083475;28;20172;-87
2023/06/24 14:30:03;;;;;;;4.18;3.70;;;;;;;;;;5092020;28;20168;-86
2023/06/24 14:32:29;;;;;;;5.80;4.55;;;;;;;;;;5090712;28;20622;-86
2023/06/24 14:34:55;;;;;;;4.10;3.55;;;;;;;;;;5090382;28;20187;-87
2023/06/24 14:37:21;;;;;;;3.75;3.45;;;;;;;;;;5091956;28;20257;-88
2023/06/24 14:39:47;;;;;;;4.72;4.32;;;;;;;;;;5090105;28;20223;-86
2023/06/24 14:42:13;;;;;;;4.32;3.92;;;;;;;;;;5092652;28;20578;-87